createdAt,value
2018-09-01T00:02:09.454Z,15.70
2018-09-01T00:04:38.302Z,15.60
2018-09-01T00:07:07.692Z,15.70
2018-09-01T00:09:36.991Z,15.60
2018-09-01T00:12:07.610Z,15.60
2018-09-01T00:14:37.398Z,15.60
2018-09-01T00:17:07.226Z,15.70
2018-09-01T00:19:36.578Z,15.60
2018-09-01T00:22:06.178Z,15.60
2018-09-01T00:24:35.402Z,15.60
2018-09-01T00:27:04.847Z,15.50
2018-09-01T00:29:34.123Z,15.50
2018-09-01T00:32:03.621Z,15.50
2018-09-01T00:34:33.418Z,15.40
2018-09-01T00:37:02.950Z,15.40
2018-09-01T00:39:32.406Z,15.40
2018-09-01T00:42:02.143Z,15.50
2018-09-01T00:44:32.158Z,15.40
2018-09-01T00:47:02.464Z,15.40
2018-09-01T00:49:31.750Z,15.40
2018-09-01T00:52:00.984Z,15.40
2018-09-01T00:54:30.270Z,15.40
2018-09-01T00:57:00.275Z,15.40
2018-09-01T00:59:29.286Z,15.40
2018-09-01T01:01:58.254Z,15.40
2018-09-01T01:04:28.166Z,15.40
2018-09-01T01:06:57.582Z,15.40
2018-09-01T01:09:27.098Z,15.40
2018-09-01T01:11:56.991Z,15.40
2018-09-01T01:14:26.086Z,15.50
2018-09-01T01:16:55.131Z,15.50
2018-09-01T01:19:24.600Z,15.50
2018-09-01T01:21:54.216Z,15.50
2018-09-01T01:24:23.518Z,15.50
2018-09-01T01:26:55.501Z,15.50
2018-09-01T01:29:26.395Z,15.60
2018-09-01T01:31:56.449Z,15.50
2018-09-01T01:34:25.740Z,15.50
2018-09-01T01:36:55.454Z,15.50
2018-09-01T01:39:24.758Z,15.50
2018-09-01T01:41:54.078Z,15.50
2018-09-01T01:44:23.562Z,15.50
2018-09-01T01:46:52.330Z,15.50
2018-09-01T01:49:21.818Z,15.50
2018-09-01T01:51:50.959Z,15.60
2018-09-01T01:54:20.110Z,15.60
2018-09-01T01:56:48.858Z,15.60
2018-09-01T01:59:18.206Z,15.60
2018-09-01T02:01:47.887Z,15.60
2018-09-01T02:04:17.045Z,15.60
2018-09-01T02:06:46.109Z,15.60
2018-09-01T02:09:15.541Z,15.60
2018-09-01T02:11:44.591Z,15.60
2018-09-01T02:14:14.540Z,15.60
2018-09-01T02:16:44.246Z,15.70
2018-09-01T02:19:13.926Z,15.70
2018-09-01T02:21:43.307Z,15.70
2018-09-01T02:24:12.670Z,15.80
2018-09-01T02:26:42.383Z,15.80
2018-09-01T02:29:11.759Z,15.70
2018-09-01T02:31:41.395Z,15.70
2018-09-01T02:34:10.862Z,15.70
2018-09-01T02:36:40.482Z,15.60
2018-09-01T02:39:09.952Z,15.60
2018-09-01T02:41:39.302Z,15.50
2018-09-01T02:44:08.410Z,15.50
2018-09-01T02:46:37.175Z,15.50
2018-09-01T02:49:06.786Z,15.40
2018-09-01T02:51:36.206Z,15.40
2018-09-01T02:54:04.986Z,15.40
2018-09-01T02:56:33.861Z,15.50
2018-09-01T02:59:03.666Z,15.50
2018-09-01T03:01:36.514Z,15.50
2018-09-01T03:04:07.208Z,15.50
2018-09-01T03:06:47.139Z,15.60
2018-09-01T03:09:16.748Z,15.60
2018-09-01T03:11:46.103Z,15.60
2018-09-01T03:14:14.875Z,15.70
2018-09-01T03:16:43.914Z,15.70
2018-09-01T03:19:13.274Z,15.70
2018-09-01T03:21:42.550Z,15.70
2018-09-01T03:24:11.784Z,15.70
2018-09-01T03:26:41.230Z,15.70
2018-09-01T03:29:10.827Z,15.60
2018-09-01T03:31:39.870Z,15.70
2018-09-01T03:34:09.329Z,15.70
2018-09-01T03:36:38.671Z,15.70
2018-09-01T03:39:09.082Z,15.80
2018-09-01T03:41:39.584Z,15.80
2018-09-01T03:44:09.321Z,15.80
2018-09-01T03:46:38.386Z,15.80
2018-09-01T03:49:08.686Z,15.70
2018-09-01T03:51:37.730Z,15.70
2018-09-01T03:54:07.085Z,15.80
2018-09-01T03:56:35.850Z,15.80
2018-09-01T03:59:05.282Z,15.80
2018-09-01T04:01:34.372Z,15.80
2018-09-01T04:04:03.480Z,15.80
2018-09-01T04:06:33.799Z,15.80
2018-09-01T04:09:03.000Z,15.80
2018-09-01T04:11:33.006Z,15.80
2018-09-01T04:14:02.362Z,15.80
2018-09-01T04:16:31.821Z,15.80
2018-09-01T04:19:05.208Z,15.80
2018-09-01T04:21:34.566Z,15.80
2018-09-01T04:24:05.118Z,15.90
2018-09-01T04:26:34.251Z,15.90
2018-09-01T04:29:03.441Z,15.90
2018-09-01T04:31:32.632Z,16.00
2018-09-01T04:34:02.243Z,16.00
2018-09-01T04:36:31.436Z,15.90
2018-09-01T04:39:00.840Z,15.90
2018-09-01T04:41:30.650Z,15.90
2018-09-01T04:43:59.530Z,15.90
2018-09-01T04:46:29.387Z,16.00
2018-09-01T04:49:00.263Z,16.00
2018-09-01T04:51:30.202Z,16.00
2018-09-01T04:54:00.138Z,16.00
2018-09-01T04:56:29.590Z,15.90
2018-09-01T04:59:03.006Z,16.00
2018-09-01T05:01:32.212Z,16.00
2018-09-01T05:04:01.387Z,16.10
2018-09-01T05:06:30.811Z,16.10
2018-09-01T05:09:04.737Z,16.10
2018-09-01T05:11:34.528Z,16.20
2018-09-01T05:14:04.318Z,16.20
2018-09-01T05:16:33.948Z,16.20
2018-09-01T05:19:02.870Z,16.20
2018-09-01T05:21:34.406Z,16.30
2018-09-01T05:24:07.662Z,16.30
2018-09-01T05:26:37.594Z,16.30
2018-09-01T05:29:09.130Z,16.30
2018-09-01T05:31:39.042Z,16.40
2018-09-01T05:34:08.934Z,16.40
2018-09-01T05:36:38.893Z,16.50
2018-09-01T05:39:09.417Z,16.40
2018-09-01T05:41:39.175Z,16.60
2018-09-01T05:44:09.140Z,16.70
2018-09-01T05:46:38.519Z,16.90
2018-09-01T05:49:08.160Z,16.90
2018-09-01T05:51:37.653Z,16.90
2018-09-01T05:54:07.055Z,17.00
2018-09-01T05:56:36.909Z,17.10
2018-09-01T05:59:07.138Z,17.20
2018-09-01T06:01:37.646Z,17.30
2018-09-01T06:04:07.796Z,17.50
2018-09-01T06:06:37.342Z,17.50
2018-09-01T06:09:08.710Z,17.70
2018-09-01T06:11:38.795Z,17.80
2018-09-01T06:14:10.914Z,18.10
2018-09-01T06:16:40.783Z,18.20
2018-09-01T06:19:10.718Z,18.40
2018-09-01T06:21:39.498Z,18.60
2018-09-01T06:24:09.289Z,18.70
2018-09-01T06:26:38.335Z,18.90
2018-09-01T06:29:12.810Z,18.90
2018-09-01T06:32:12.042Z,19.00
2018-09-01T06:34:41.322Z,19.20
2018-09-01T06:37:10.602Z,19.40
2018-09-01T06:39:39.965Z,19.50
2018-09-01T06:42:09.411Z,19.80
2018-09-01T06:44:39.102Z,19.90
2018-09-01T06:47:08.521Z,19.90
2018-09-01T06:49:38.395Z,19.90
2018-09-01T06:52:07.742Z,19.80
2018-09-01T06:54:37.137Z,19.80
2018-09-01T06:57:06.290Z,19.90
2018-09-01T06:59:35.659Z,19.90
2018-09-01T07:02:05.533Z,20.00
2018-09-01T07:04:35.243Z,19.80
2018-09-01T07:07:04.827Z,19.90
2018-09-01T07:09:34.455Z,20.00
2018-09-01T07:12:03.918Z,20.10
2018-09-01T07:14:33.634Z,20.20
2018-09-01T07:17:03.258Z,20.20
2018-09-01T07:19:33.499Z,20.00
2018-09-01T07:22:03.216Z,20.10
2018-09-01T07:24:32.599Z,19.80
2018-09-01T07:27:02.549Z,19.70
2018-09-01T07:29:31.882Z,19.50
2018-09-01T07:32:01.691Z,19.40
2018-09-01T07:34:31.466Z,19.30
2018-09-01T07:37:00.919Z,19.40
2018-09-01T07:39:30.502Z,19.30
2018-09-01T07:41:59.538Z,19.30
2018-09-01T07:44:29.416Z,19.30
2018-09-01T07:46:59.113Z,19.30
2018-09-01T07:49:29.038Z,19.20
2018-09-01T07:51:58.671Z,19.20
2018-09-01T07:54:28.253Z,19.00
2018-09-01T07:56:57.762Z,19.30
2018-09-01T07:59:27.722Z,19.60
2018-09-01T08:01:57.410Z,19.50
2018-09-01T08:04:26.383Z,19.50
2018-09-01T08:06:56.210Z,19.90
2018-09-01T08:09:26.031Z,20.20
2018-09-01T08:11:55.707Z,20.40
2018-09-01T08:14:25.676Z,20.50
2018-09-01T08:16:55.639Z,20.50
2018-09-01T08:19:25.143Z,20.60
2018-09-01T08:21:54.346Z,20.70
2018-09-01T08:24:24.346Z,20.90
2018-09-01T08:26:54.105Z,21.00
2018-09-01T08:29:23.570Z,21.00
2018-09-01T08:31:53.678Z,21.10
2018-09-01T08:34:22.938Z,21.40
2018-09-01T08:36:52.706Z,22.00
2018-09-01T08:39:22.218Z,22.50
2018-09-01T08:41:51.063Z,22.70
2018-09-01T08:44:20.205Z,22.80
2018-09-01T08:46:49.630Z,22.90
2018-09-01T08:49:19.532Z,23.10
2018-09-01T08:51:49.443Z,23.00
2018-09-01T08:54:19.353Z,22.80
2018-09-01T08:56:49.282Z,23.10
2018-09-01T08:59:18.688Z,23.80
2018-09-01T09:01:48.708Z,23.60
2018-09-01T09:04:17.807Z,23.10
2018-09-01T09:06:48.128Z,22.70
2018-09-01T09:09:17.694Z,22.70
2018-09-01T09:11:47.209Z,22.40
2018-09-01T09:14:17.041Z,22.10
2018-09-01T09:16:46.422Z,21.50
2018-09-01T09:19:16.383Z,21.10
2018-09-01T09:21:45.978Z,21.00
2018-09-01T09:24:15.110Z,21.10
2018-09-01T09:26:45.674Z,21.60
2018-09-01T09:29:15.192Z,22.50
2018-09-01T09:31:44.959Z,22.20
2018-09-01T09:34:14.186Z,22.80
2018-09-01T09:36:44.014Z,23.70
2018-09-01T09:39:13.811Z,24.30
2018-09-01T09:41:43.460Z,24.30
2018-09-01T09:44:12.795Z,23.70
2018-09-01T09:46:42.090Z,23.60
2018-09-01T09:49:11.803Z,23.30
2018-09-01T09:51:41.859Z,23.20
2018-09-01T09:54:11.732Z,23.80
2018-09-01T09:56:41.366Z,24.30
2018-09-01T09:59:11.035Z,24.10
2018-09-01T10:01:41.663Z,24.50
2018-09-01T10:04:11.862Z,24.00
2018-09-01T10:06:41.282Z,23.10
2018-09-01T10:09:14.242Z,23.80
2018-09-01T10:11:44.186Z,23.30
2018-09-01T10:14:13.650Z,22.80
2018-09-01T10:16:43.266Z,22.10
2018-09-01T10:19:12.699Z,21.80
2018-09-01T10:21:42.424Z,21.40
2018-09-01T10:24:11.618Z,21.30
2018-09-01T10:26:41.383Z,21.50
2018-09-01T10:29:11.171Z,21.60
2018-09-01T10:31:40.867Z,21.70
2018-09-01T10:34:10.731Z,21.90
2018-09-01T10:36:39.946Z,22.40
2018-09-01T10:39:10.502Z,22.70
2018-09-01T10:41:40.278Z,24.20
2018-09-01T10:44:10.174Z,25.40
2018-09-01T10:46:40.242Z,26.70
2018-09-01T10:49:09.667Z,27.40
2018-09-01T10:51:39.022Z,27.00
2018-09-01T10:54:08.426Z,27.80
2018-09-01T10:56:38.334Z,27.90
2018-09-01T10:59:07.892Z,27.90
2018-09-01T11:01:37.238Z,27.50
2018-09-01T11:04:06.879Z,27.40
2018-09-01T11:06:36.322Z,29.00
2018-09-01T11:09:07.642Z,30.30
2018-09-01T11:11:36.727Z,30.70
2018-09-01T11:14:05.870Z,29.90
2018-09-01T11:16:35.501Z,28.80
2018-09-01T11:19:04.848Z,27.60
2018-09-01T11:21:34.376Z,26.90
2018-09-01T11:24:03.643Z,26.00
2018-09-01T11:26:33.412Z,25.50
2018-09-01T11:29:02.815Z,25.40
2018-09-01T11:31:32.257Z,25.00
2018-09-01T11:34:01.358Z,24.50
2018-09-01T11:36:31.092Z,24.20
2018-09-01T11:38:59.894Z,24.00
2018-09-01T11:41:28.670Z,23.90
2018-09-01T11:43:58.067Z,23.60
2018-09-01T11:46:27.194Z,23.70
2018-09-01T11:48:57.130Z,23.80
2018-09-01T11:51:26.434Z,23.70
2018-09-01T11:53:56.110Z,23.20
2018-09-01T11:56:24.914Z,23.20
2018-09-01T11:58:54.237Z,23.10
2018-09-01T12:01:23.806Z,23.00
2018-09-01T12:03:53.196Z,22.80
2018-09-01T12:06:22.642Z,22.60
2018-09-01T12:08:51.829Z,22.40
2018-09-01T12:11:20.923Z,22.00
2018-09-01T12:13:50.653Z,22.10
2018-09-01T12:16:20.463Z,22.30
2018-09-01T12:18:49.962Z,23.20
2018-09-01T12:21:19.467Z,24.70
2018-09-01T12:23:49.283Z,25.70
2018-09-01T12:26:18.346Z,26.40
2018-09-01T12:28:47.439Z,28.20
2018-09-01T12:31:16.835Z,29.30
2018-09-01T12:33:46.239Z,28.90
2018-09-01T12:36:15.643Z,28.50
2018-09-01T12:38:44.876Z,29.30
2018-09-01T12:41:14.703Z,29.80
2018-09-01T12:43:43.606Z,29.50
2018-09-01T12:46:12.370Z,29.20
2018-09-01T12:48:41.951Z,29.40
2018-09-01T12:51:11.369Z,29.20
2018-09-01T12:53:40.781Z,28.30
2018-09-01T12:56:10.214Z,27.70
2018-09-01T12:58:39.314Z,27.60
2018-09-01T13:01:08.627Z,27.30
2018-09-01T13:03:38.608Z,27.20
2018-09-01T13:06:08.706Z,26.70
2018-09-01T13:08:38.102Z,27.00
2018-09-01T13:11:08.163Z,26.90
2018-09-01T13:13:37.499Z,26.70
2018-09-01T13:16:06.970Z,26.80
2018-09-01T13:18:36.054Z,27.20
2018-09-01T13:21:05.213Z,28.50
2018-09-01T13:23:34.815Z,28.90
2018-09-01T13:26:03.954Z,27.60
2018-09-01T13:28:33.903Z,26.50
2018-09-01T13:31:03.830Z,27.10
2018-09-01T13:33:33.655Z,27.60
2018-09-01T13:36:03.286Z,27.80
2018-09-01T13:38:32.826Z,28.40
2018-09-01T13:41:02.602Z,30.00
2018-09-01T13:43:31.979Z,31.30
2018-09-01T13:46:00.855Z,32.10
2018-09-01T13:48:29.957Z,32.30
2018-09-01T13:50:59.670Z,31.50
2018-09-01T13:53:29.519Z,31.00
2018-09-01T13:55:58.899Z,30.70
2018-09-01T13:58:27.946Z,29.80
2018-09-01T14:00:57.380Z,30.00
2018-09-01T14:03:27.036Z,30.60
2018-09-01T14:05:56.426Z,31.20
2018-09-01T14:08:25.551Z,31.00
2018-09-01T14:10:54.622Z,29.50
2018-09-01T14:13:24.330Z,27.80
2018-09-01T14:15:53.465Z,26.30
2018-09-01T14:18:22.806Z,25.70
2018-09-01T14:20:52.507Z,25.70
2018-09-01T14:23:21.852Z,25.70
2018-09-01T14:25:50.987Z,27.00
2018-09-01T14:28:20.797Z,28.60
2018-09-01T14:30:50.163Z,29.60
2018-09-01T14:33:19.550Z,30.20
2018-09-01T14:35:48.797Z,30.60
2018-09-01T14:38:18.262Z,30.60
2018-09-01T14:40:47.657Z,30.80
2018-09-01T14:43:17.003Z,31.50
2018-09-01T14:45:46.614Z,31.20
2018-09-01T14:48:15.731Z,31.20
2018-09-01T14:50:44.743Z,31.70
2018-09-01T14:53:13.921Z,31.30
2018-09-01T14:55:43.231Z,31.90
2018-09-01T14:58:12.631Z,31.90
2018-09-01T15:00:42.207Z,32.10
2018-09-01T15:03:11.567Z,32.00
2018-09-01T15:05:40.667Z,31.70
2018-09-01T15:08:10.102Z,31.40
2018-09-01T15:10:39.398Z,30.80
2018-09-01T15:13:08.482Z,30.30
2018-09-01T15:15:37.791Z,29.40
2018-09-01T15:18:07.161Z,29.50
2018-09-01T15:20:36.314Z,29.90
2018-09-01T15:23:05.894Z,29.20
2018-09-01T15:25:35.028Z,29.00
2018-09-01T15:28:04.434Z,29.40
2018-09-01T15:30:33.618Z,29.60
2018-09-01T15:33:02.783Z,29.70
2018-09-01T15:35:32.215Z,28.90
2018-09-01T15:38:02.080Z,29.30
2018-09-01T15:40:31.501Z,28.80
2018-09-01T15:43:01.204Z,28.60
2018-09-01T15:45:31.123Z,28.60
2018-09-01T15:48:00.217Z,28.60
2018-09-01T15:50:29.921Z,28.00
2018-09-01T15:52:59.624Z,26.80
2018-09-01T15:55:29.619Z,26.20
2018-09-01T15:57:58.702Z,25.70
2018-09-01T16:00:27.823Z,25.40
2018-09-01T16:02:56.638Z,25.50
2018-09-01T16:05:26.236Z,25.70
2018-09-01T16:07:55.295Z,25.40
2018-09-01T16:10:24.734Z,25.00
2018-09-01T16:12:54.033Z,24.40
2018-09-01T16:15:23.828Z,23.80
2018-09-01T16:17:52.925Z,24.00
2018-09-01T16:20:22.127Z,24.30
2018-09-01T16:22:51.585Z,24.30
2018-09-01T16:25:21.518Z,23.60
2018-09-01T16:27:51.053Z,23.00
2018-09-01T16:30:20.711Z,22.30
2018-09-01T16:32:49.742Z,21.40
2018-09-01T16:35:19.459Z,20.90
2018-09-01T16:37:49.181Z,20.40
2018-09-01T16:40:18.839Z,20.10
2018-09-01T16:42:47.834Z,19.80
2018-09-01T16:45:16.966Z,19.60
2018-09-01T16:47:46.019Z,19.40
2018-09-01T16:50:16.016Z,19.10
2018-09-01T16:52:45.879Z,19.00
2018-09-01T16:55:15.270Z,18.80
2018-09-01T16:57:45.062Z,18.70
2018-09-01T17:00:14.700Z,18.50
2018-09-01T17:02:43.764Z,18.50
2018-09-01T17:05:14.090Z,18.50
2018-09-01T17:07:43.474Z,18.40
2018-09-01T17:10:13.134Z,18.40
2018-09-01T17:12:43.267Z,18.40
2018-09-01T17:15:13.487Z,18.30
2018-09-01T17:17:43.166Z,18.30
2018-09-01T17:20:12.887Z,18.20
2018-09-01T17:22:41.938Z,18.10
2018-09-01T17:25:10.923Z,18.10
2018-09-01T17:27:40.966Z,18.10
2018-09-01T17:30:10.193Z,17.90
2018-09-01T17:32:39.246Z,17.90
2018-09-01T17:35:09.072Z,17.90
2018-09-01T17:37:38.734Z,17.80
2018-09-01T17:40:08.066Z,17.80
2018-09-01T17:42:37.898Z,17.60
2018-09-01T17:45:08.643Z,17.60
2018-09-01T17:47:38.255Z,17.50
2018-09-01T17:50:08.371Z,17.40
2018-09-01T17:52:37.731Z,17.40
2018-09-01T17:55:07.406Z,17.30
2018-09-01T17:57:36.618Z,17.30
2018-09-01T18:00:06.183Z,17.30
2018-09-01T18:02:35.322Z,17.20
2018-09-01T18:05:05.193Z,17.20
2018-09-01T18:07:34.390Z,17.10
2018-09-01T18:10:03.836Z,17.10
2018-09-01T18:12:33.178Z,17.00
2018-09-01T18:15:02.542Z,17.00
2018-09-01T18:17:32.326Z,17.00
2018-09-01T18:20:01.597Z,17.10
2018-09-01T18:22:30.887Z,17.10
2018-09-01T18:25:00.787Z,17.20
2018-09-01T18:27:29.904Z,17.30
2018-09-01T18:29:59.723Z,17.40
2018-09-01T18:32:28.744Z,17.40
2018-09-01T18:34:57.870Z,17.40
2018-09-01T18:37:26.988Z,17.40
2018-09-01T18:39:56.109Z,17.30
2018-09-01T18:42:25.296Z,17.30
2018-09-01T18:44:55.300Z,17.40
2018-09-01T18:47:24.542Z,17.40
2018-09-01T18:49:54.118Z,17.40
2018-09-01T18:52:23.479Z,17.40
2018-09-01T18:54:53.087Z,17.40
2018-09-01T18:57:22.802Z,17.30
2018-09-01T18:59:52.340Z,17.30
2018-09-01T19:02:21.638Z,17.30
2018-09-01T19:04:51.282Z,17.30
2018-09-01T19:07:21.439Z,17.30
2018-09-01T19:09:51.051Z,17.30
2018-09-01T19:12:20.476Z,17.30
2018-09-01T19:14:50.235Z,17.20
2018-09-01T19:17:19.874Z,17.10
2018-09-01T19:19:49.490Z,17.10
2018-09-01T19:22:18.843Z,17.10
2018-09-01T19:24:48.310Z,17.00
2018-09-01T19:27:18.255Z,17.00
2018-09-01T19:29:47.658Z,16.90
2018-09-01T19:32:17.503Z,16.80
2018-09-01T19:34:46.754Z,16.80
2018-09-01T19:37:16.023Z,16.80
2018-09-01T19:39:45.116Z,16.70
2018-09-01T19:42:14.182Z,16.70
2018-09-01T19:44:44.018Z,16.70
2018-09-01T19:47:14.033Z,16.70
2018-09-01T19:49:43.514Z,16.70
2018-09-01T19:52:13.041Z,16.70
2018-09-01T19:54:42.091Z,16.60
2018-09-01T19:57:11.196Z,16.60
2018-09-01T19:59:39.979Z,16.60
2018-09-01T20:02:09.070Z,16.50
2018-09-01T20:04:37.924Z,16.50
2018-09-01T20:07:07.935Z,16.50
2018-09-01T20:09:36.990Z,16.50
2018-09-01T20:12:06.979Z,16.40
2018-09-01T20:14:36.024Z,16.50
2018-09-01T20:17:05.215Z,16.50
2018-09-01T20:19:34.530Z,16.50
2018-09-01T20:22:03.894Z,16.50
2018-09-01T20:24:33.404Z,16.40
2018-09-01T20:27:02.970Z,16.40
2018-09-01T20:29:32.727Z,16.50
2018-09-01T20:32:02.553Z,16.50
2018-09-01T20:34:34.215Z,16.40
2018-09-01T20:37:04.094Z,16.30
2018-09-01T20:39:33.457Z,16.30
2018-09-01T20:42:02.734Z,16.20
2018-09-01T20:44:31.813Z,16.20
2018-09-01T20:47:01.218Z,16.10
2018-09-01T20:49:30.290Z,16.10
2018-09-01T20:51:59.922Z,16.10
2018-09-01T20:54:29.311Z,16.10
2018-09-01T20:56:59.271Z,16.00
2018-09-01T20:59:28.637Z,16.00
2018-09-01T21:01:58.403Z,15.90
2018-09-01T21:04:28.353Z,15.90
2018-09-01T21:06:57.555Z,15.90
2018-09-01T21:09:27.087Z,15.90
2018-09-01T21:11:55.934Z,15.90
2018-09-01T21:14:26.030Z,15.80
2018-09-01T21:16:55.471Z,15.80
2018-09-01T21:19:24.843Z,15.70
2018-09-01T21:21:53.922Z,15.70
2018-09-01T21:24:23.662Z,15.70
2018-09-01T21:26:52.706Z,15.70
2018-09-01T21:29:22.068Z,15.70
2018-09-01T21:31:51.802Z,15.70
2018-09-01T21:34:20.823Z,15.70
2018-09-01T21:36:50.253Z,15.70
2018-09-01T21:39:19.650Z,15.80
2018-09-01T21:41:49.388Z,15.70
2018-09-01T21:44:18.784Z,15.70
2018-09-01T21:46:48.671Z,15.70
2018-09-01T21:49:17.998Z,15.70
2018-09-01T21:51:47.460Z,15.60
2018-09-01T21:54:16.778Z,15.60
2018-09-01T21:56:46.818Z,15.60
2018-09-01T21:59:16.628Z,15.60
2018-09-01T22:01:49.806Z,15.50
2018-09-01T22:04:19.189Z,15.50
2018-09-01T22:06:48.829Z,15.50
2018-09-01T22:09:18.762Z,15.50
2018-09-01T22:11:47.880Z,15.50
2018-09-01T22:14:16.668Z,15.50
2018-09-01T22:16:45.462Z,15.50
2018-09-01T22:19:15.119Z,15.40
2018-09-01T22:21:44.820Z,15.40
2018-09-01T22:24:14.710Z,15.40
2018-09-01T22:26:44.038Z,15.40
2018-09-01T22:29:14.035Z,15.30
2018-09-01T22:31:43.456Z,15.30
2018-09-01T22:34:12.860Z,15.30
2018-09-01T22:36:42.270Z,15.30
2018-09-01T22:39:11.623Z,15.20
2018-09-01T22:41:41.023Z,15.10
2018-09-01T22:44:09.794Z,15.10
2018-09-01T22:46:38.614Z,15.00
2018-09-01T22:49:07.661Z,15.00
2018-09-01T22:51:37.226Z,15.00
2018-09-01T22:54:06.535Z,15.00
2018-09-01T22:56:35.851Z,14.90
2018-09-01T22:59:05.727Z,15.00
2018-09-01T23:01:35.079Z,15.00
2018-09-01T23:04:04.423Z,14.90
2018-09-01T23:06:33.436Z,14.90
2018-09-01T23:09:02.526Z,14.90
2018-09-01T23:11:31.603Z,14.80
2018-09-01T23:14:00.909Z,14.80
2018-09-01T23:16:30.307Z,14.80
2018-09-01T23:18:59.113Z,14.80
2018-09-01T23:21:28.155Z,14.80
2018-09-01T23:23:57.216Z,14.70
2018-09-01T23:26:26.689Z,14.70
2018-09-01T23:28:55.514Z,14.60
2018-09-01T23:31:24.386Z,14.60
2018-09-01T23:33:53.445Z,14.60
2018-09-01T23:36:22.842Z,14.60
2018-09-01T23:38:52.474Z,14.60
2018-09-01T23:41:21.585Z,14.60
2018-09-01T23:43:51.051Z,14.60
2018-09-01T23:46:20.285Z,14.50
2018-09-01T23:48:49.685Z,14.40
2018-09-01T23:51:18.775Z,14.40
2018-09-01T23:53:47.873Z,14.40
2018-09-01T23:56:17.071Z,14.50
2018-09-01T23:58:46.683Z,14.50
